Time;durP1;ratioP1;P1;durP2;ratioP2;P2;SDS_P1;SDS_P2;PMS_P1;PMS_P2;Temp;Humidity;BMP_temperature;BMP_pressure;BME280_temperature;BME280_humidity;BME280_pressure;Samples;Min_cycle;Max_cycle;Signal;HPM_P1;HPM_P2
2023/05/19 00:02:24;;;;;;;;;;;;;;;14.61;100.00;99893.41;5012106;28;19925;-83
2023/05/19 00:04:50;;;;;;;;;;;;;;;14.62;100.00;99895.06;5009388;28;19917;-84
2023/05/19 00:07:17;;;;;;;;;;;;;;;14.62;100.00;99900.38;5012004;28;19917;-84
2023/05/19 00:09:43;;;;;;;;;;;;;;;14.46;100.00;99895.00;5011804;28;19917;-84
2023/05/19 00:12:09;;;;;;;;;;;;;;;14.47;100.00;99902.81;5012321;28;19921;-84
2023/05/19 00:14:35;;;;;;;;;;;;;;;14.51;100.00;99900.69;5012439;28;19925;-84
2023/05/19 00:17:02;;;;;;;;;;;;;;;14.48;100.00;99898.34;5011392;28;19917;-85
2023/05/19 00:19:31;;;;;;;;;;;;;;;14.42;100.00;99898.97;5010862;28;20004;-84
2023/05/19 00:21:59;;;;;;;;;;;;;;;14.49;100.00;99902.69;5011368;28;19917;-85
2023/05/19 00:24:25;;;;;;;;;;;;;;;14.43;100.00;99900.66;5011830;28;19917;-83
2023/05/19 00:26:50;;;;;;;;;;;;;;;14.40;100.00;99901.78;5011610;28;19917;-85
2023/05/19 00:29:17;;;;;;;;;;;;;;;14.42;100.00;99905.13;5010757;28;19944;-86
2023/05/19 00:31:42;;;;;;;;;;;;;;;14.38;100.00;99901.09;5010278;28;20670;-84
2023/05/19 00:34:08;;;;;;;;;;;;;;;14.32;100.00;99899.88;5009852;28;19961;-85
2023/05/19 00:36:33;;;;;;;;;;;;;;;14.28;100.00;99892.41;5010042;28;20388;-83
2023/05/19 00:38:58;;;;;;;;;;;;;;;14.32;100.00;99893.75;5009791;28;19960;-84
2023/05/19 00:41:24;;;;;;;;;;;;;;;14.28;100.00;99890.59;5011562;28;20358;-84
2023/05/19 00:43:50;;;;;;;;;;;;;;;14.17;100.00;99890.03;5009659;28;20419;-83
2023/05/19 00:46:17;;;;;;;;;;;;;;;13.99;100.00;99892.75;5011601;28;20055;-83
2023/05/19 00:48:44;;;;;;;;;;;;;;;13.68;100.00;99888.88;5011056;28;20059;-82
2023/05/19 00:51:13;;;;;;;;;;;;;;;13.71;100.00;99883.28;5009767;28;19922;-83
2023/05/19 00:53:38;;;;;;;;;;;;;;;13.67;100.00;99879.25;5009789;28;19928;-83
2023/05/19 00:56:04;;;;;;;;;;;;;;;13.56;100.00;99882.13;5009722;28;20200;-84
2023/05/19 00:58:31;;;;;;;;;;;;;;;13.46;100.00;99877.78;5007292;28;19917;-84
2023/05/19 01:01:02;;;;;;;;;;;;;;;13.41;100.00;99871.28;5008262;28;19921;-82
2023/05/19 01:03:29;;;;;;;;;;;;;;;13.37;100.00;99875.22;5008761;28;19929;-83
2023/05/19 01:05:55;;;;;;;;;;;;;;;13.31;100.00;99876.63;5011391;28;19918;-83
2023/05/19 01:08:20;;;;;;;;;;;;;;;13.27;100.00;99874.44;5011262;28;19964;-84
2023/05/19 01:10:46;;;;;;;;;;;;;;;13.28;100.00;99876.13;5011452;28;19928;-84
2023/05/19 01:13:11;;;;;;;;;;;;;;;13.29;100.00;99873.31;5011894;28;20008;-85
2023/05/19 01:15:57;;;;;;;;;;;;;;;13.34;100.00;99871.03;5010499;28;19917;-85
2023/05/19 01:18:27;;;;;;;;;;;;;;;13.36;100.00;99869.09;5010382;28;19917;-83
2023/05/19 01:21:02;;;;;;;;;;;;;;;13.37;100.00;99865.41;5019188;28;19917;-83
2023/05/19 01:23:50;;;;;;;;;;;;;;;13.36;100.00;99866.44;5030660;28;19988;-83
2023/05/19 01:26:35;;;;;;;;;;;;;;;13.39;100.00;99868.75;5028713;28;19913;-84
2023/05/19 01:29:15;;;;;;;;;;;;;;;13.40;100.00;99875.72;5015628;28;20309;-85
2023/05/19 01:31:41;;;;;;;;;;;;;;;13.49;100.00;99872.16;5004625;28;19917;-85
2023/05/19 01:34:07;;;;;;;;;;;;;;;13.53;100.00;99870.88;5015362;28;19913;-83
2023/05/19 01:36:34;;;;;;;;;;;;;;;13.55;100.00;99872.53;5007202;28;20254;-82
2023/05/19 01:39:00;;;;;;;;;;;;;;;13.53;100.00;99868.22;5015260;28;19913;-84
2023/05/19 01:41:27;;;;;;;;;;;;;;;13.49;100.00;99864.19;5015729;28;19917;-86
2023/05/19 01:43:53;;;;;;;;;;;;;;;13.50;100.00;99870.34;5015311;28;19921;-86
2023/05/19 01:46:32;;;;;;;;;;;;;;;13.44;100.00;99868.28;5620055;23;20031;-82
2023/05/19 01:49:00;;;;;;;;;;;;;;;13.49;100.00;99869.50;5063972;28;19928;-82
2023/05/19 01:56:59;;;;;;;;;;;;;;;13.52;100.00;99868.38;2931476;26;19974;-80
2023/05/19 01:59:33;;;;;;;;;;;;;;;13.56;100.00;99875.03;5035718;28;20377;-80
2023/05/19 02:01:59;;;;;;;;;;;;;;;13.61;100.00;99866.63;5053444;28;19939;-80
2023/05/19 02:04:38;;;;;;;;;;;;;;;13.64;100.00;99861.00;5053757;28;20007;-80
2023/05/19 02:07:07;;;;;;;;;;;;;;;13.70;100.00;99865.69;5027748;28;19924;-82
2023/05/19 02:09:34;;;;;;;;;;;;;;;13.70;100.00;99865.69;5032537;28;19917;-82
2023/05/19 02:12:08;;;;;;;;;;;;;;;13.68;100.00;99862.34;5053113;28;19967;-81
2023/05/19 02:14:40;;;;;;;;;;;;;;;13.69;100.00;99864.00;5050268;28;19928;-82
2023/05/19 02:17:07;;;;;;;;;;;;;;;13.75;100.00;99863.41;5048159;28;19921;-81
2023/05/19 02:19:34;;;;;;;;;;;;;;;13.77;100.00;99861.44;5031445;28;19970;-81
2023/05/19 02:22:00;;;;;;;;;;;;;;;13.75;100.00;99858.09;5031725;28;20397;-81
2023/05/19 02:24:25;;;;;;;;;;;;;;;13.77;100.00;99850.81;5035789;28;20011;-84
2023/05/19 02:26:51;;;;;;;;;;;;;;;13.78;100.00;99857.78;5052915;28;20327;-85
2023/05/19 02:29:17;;;;;;;;;;;;;;;13.81;100.00;99849.50;5054783;28;19916;-86
2023/05/19 02:31:43;;;;;;;;;;;;;;;13.85;100.00;99859.66;5057129;28;20388;-86
2023/05/19 02:34:08;;;;;;;;;;;;;;;13.88;100.00;99853.22;5057166;28;20365;-86
2023/05/19 02:36:35;;;;;;;;;;;;;;;13.86;100.00;99853.34;5057448;28;19999;-85
2023/05/19 02:39:03;;;;;;;;;;;;;;;13.88;100.00;99853.22;5056922;28;19971;-83
2023/05/19 02:41:29;;;;;;;;;;;;;;;13.89;100.00;99850.41;5056111;28;20037;-83
2023/05/19 02:43:54;;;;;;;;;;;;;;;13.93;100.00;99850.91;5054149;28;19986;-83
2023/05/19 02:46:20;;;;;;;;;;;;;;;13.91;100.00;99852.88;5053901;28;19923;-83
2023/05/19 02:48:45;;;;;;;;;;;;;;;13.93;100.00;99845.59;5016737;28;20420;-84
2023/05/19 02:51:10;;;;;;;;;;;;;;;13.92;100.00;99836.81;5053294;28;19916;-81
2023/05/19 02:53:36;;;;;;;;;;;;;;;13.94;100.00;99841.97;5053202;28;19921;-81
2023/05/19 02:56:01;;;;;;;;;;;;;;;13.93;100.00;99842.97;5052542;28;19939;-81
2023/05/19 02:58:27;;;;;;;;;;;;;;;13.94;100.00;99836.66;5034676;28;19925;-81
2023/05/19 03:00:52;;;;;;;;;;;;;;;13.94;100.00;99834.84;5034124;28;19916;-81
2023/05/19 03:03:18;;;;;;;;;;;;;;;13.87;100.00;99836.47;5033820;28;20367;-81
2023/05/19 03:05:43;;;;;;;;;;;;;;;13.86;100.00;99829.47;5035161;28;20290;-81
2023/05/19 03:08:09;;;;;;;;;;;;;;;13.81;100.00;99838.91;5053027;28;19948;-81
2023/05/19 03:10:34;;;;;;;;;;;;;;;13.81;100.00;99830.94;5053154;28;19912;-79
2023/05/19 03:13:00;;;;;;;;;;;;;;;13.80;100.00;99834.59;5053805;28;19928;-81
2023/05/19 03:15:25;;;;;;;;;;;;;;;13.84;100.00;99828.00;5035429;28;19920;-80
2023/05/19 03:17:50;;;;;;;;;;;;;;;13.76;100.00;99825.28;5035145;28;19913;-82
2023/05/19 03:20:16;;;;;;;;;;;;;;;13.83;100.00;99823.69;5053883;28;19925;-83
2023/05/19 03:22:42;;;;;;;;;;;;;;;13.86;100.00;99823.34;5034919;28;19917;-83
2023/05/19 03:25:08;;;;;;;;;;;;;;;13.86;100.00;99829.47;5035597;28;19963;-83
2023/05/19 03:27:33;;;;;;;;;;;;;;;13.90;100.00;99830.03;5035979;28;19921;-83
2023/05/19 03:29:59;;;;;;;;;;;;;;;13.89;100.00;99828.34;5039751;28;19935;-81
2023/05/19 03:32:24;;;;;;;;;;;;;;;13.86;100.00;99829.47;5078441;28;19917;-80
2023/05/19 03:34:49;;;;;;;;;;;;;;;13.86;100.00;99826.00;5044110;28;19955;-80
2023/05/19 03:37:15;;;;;;;;;;;;;;;13.87;100.00;99825.00;5057026;28;19917;-81
2023/05/19 03:39:40;;;;;;;;;;;;;;;13.78;100.00;99837.38;5047904;28;19994;-81
2023/05/19 03:42:06;;;;;;;;;;;;;;;13.85;100.00;99837.59;5035110;28;20391;-82
2023/05/19 03:44:31;;;;;;;;;;;;;;;13.84;100.00;99841.25;5051409;28;19989;-82
2023/05/19 03:46:58;;;;;;;;;;;;;;;13.84;100.00;99835.97;5033823;28;20487;-81
2023/05/19 03:49:55;;;;;;;;;;;;;;;13.88;100.00;99839.94;5033019;28;20353;-81
2023/05/19 03:52:44;;;;;;;;;;;;;;;13.87;100.00;99831.16;5067023;28;19917;-82
2023/05/19 03:55:20;;;;;;;;;;;;;;;13.88;100.00;99837.28;5030061;28;19957;-81
2023/05/19 03:57:45;;;;;;;;;;;;;;;13.86;100.00;99839.25;5065446;28;19979;-82
2023/05/19 04:00:11;;;;;;;;;;;;;;;13.86;100.00;99828.66;5039550;28;19921;-82
2023/05/19 04:02:40;;;;;;;;;;;;;;;13.87;100.00;99830.31;5048394;28;20082;-82
2023/05/19 04:05:07;;;;;;;;;;;;;;;13.85;100.00;99837.59;5033331;28;19924;-82
2023/05/19 04:07:32;;;;;;;;;;;;;;;13.89;100.00;99844.28;5041732;28;20352;-82
2023/05/19 04:09:58;;;;;;;;;;;;;;;13.83;100.00;99845.72;5047348;28;19936;-82
2023/05/19 04:12:23;;;;;;;;;;;;;;;13.80;100.00;99845.19;5050130;28;20285;-82
2023/05/19 04:14:51;;;;;;;;;;;;;;;13.85;100.00;99843.72;5051472;28;19980;-82
2023/05/19 04:17:16;;;;;;;;;;;;;;;13.86;100.00;99845.41;5052859;28;20027;-84
2023/05/19 04:19:42;;;;;;;;;;;;;;;13.85;100.00;99848.19;5046098;28;19917;-83
2023/05/19 04:22:07;;;;;;;;;;;;;;;13.91;100.00;99852.88;5049932;28;19927;-85
2023/05/19 04:24:32;;;;;;;;;;;;;;;13.93;100.00;99848.25;5039055;28;19938;-84
2023/05/19 04:27:01;;;;;;;;;;;;;;;13.94;100.00;99845.47;5053241;28;19976;-84
2023/05/19 04:29:28;;;;;;;;;;;;;;;13.92;100.00;99841.28;5054991;28;20280;-83
2023/05/19 04:31:53;;;;;;;;;;;;;;;13.92;100.00;99841.28;5052584;28;19924;-84
2023/05/19 04:34:19;;;;;;;;;;;;;;;13.89;100.00;99854.88;5031881;28;19917;-81
2023/05/19 04:36:45;;;;;;;;;;;;;;;13.89;100.00;99850.41;5032801;28;19998;-79
2023/05/19 04:39:11;;;;;;;;;;;;;;;13.90;100.00;99857.34;5049263;28;19924;-80
2023/05/19 04:41:39;;;;;;;;;;;;;;;13.88;100.00;99858.50;5065594;28;19916;-79
2023/05/19 04:44:06;;;;;;;;;;;;;;;13.85;100.00;99853.50;5028876;28;19920;-79
2023/05/19 04:46:32;;;;;;;;;;;;;;;13.87;100.00;99856.84;5048830;28;20073;-78
2023/05/19 04:49:00;;;;;;;;;;;;;;;13.85;100.00;99856.16;5048553;28;20365;-80
2023/05/19 04:51:26;;;;;;;;;;;;;;;13.84;100.00;99868.59;5050728;28;20007;-80
2023/05/19 04:53:53;;;;;;;;;;;;;;;13.83;100.00;99866.13;5049007;28;19917;-80
2023/05/19 04:56:19;;;;;;;;;;;;;;;13.79;100.00;99870.03;5032113;28;19921;-80
2023/05/19 04:58:44;;;;;;;;;;;;;;;13.74;100.00;99861.72;5032446;28;19971;-79
2023/05/19 05:01:12;;;;;;;;;;;;;;;13.77;100.00;99861.44;5031891;28;19974;-79
2023/05/19 05:03:38;;;;;;;;;;;;;;;13.74;100.00;99864.38;5032404;28;19917;-79
2023/05/19 05:06:05;;;;;;;;;;;;;;;13.69;100.00;99861.38;5017373;28;20391;-80
2023/05/19 05:08:31;;;;;;;;;;;;;;;13.71;100.00;99872.66;5056805;28;20004;-79
2023/05/19 05:10:58;;;;;;;;;;;;;;;13.71;100.00;99877.97;5038551;28;19958;-81
2023/05/19 05:13:24;;;;;;;;;;;;;;;13.72;100.00;99869.03;5048387;28;19912;-83
2023/05/19 05:15:52;;;;;;;;;;;;;;;13.70;100.00;99868.34;5037562;28;19970;-82
2023/05/19 05:18:18;;;;;;;;;;;;;;;13.65;100.00;99873.28;5039061;28;19968;-82
2023/05/19 05:20:45;;;;;;;;;;;;;;;13.63;100.00;99872.59;5036420;28;19917;-82
2023/05/19 05:23:13;;;;;;;;;;;;;;;13.64;100.00;99877.75;5022519;28;19923;-80
2023/05/19 05:25:40;;;;;;;;;;;;;;;13.63;100.00;99880.53;5046964;28;19939;-78
2023/05/19 05:28:05;;;;;;;;;;;;;;;13.68;100.00;99875.59;5021760;28;20023;-80
2023/05/19 05:30:33;;;;;;;;;;;;;;;13.64;100.00;99875.09;5051616;28;20140;-79
2023/05/19 05:32:59;;;;;;;;;;;;;;;13.69;100.00;99872.81;5038398;28;19956;-78
2023/05/19 05:35:34;;;;;;;;;;;;;;;13.72;100.00;99869.84;5051413;28;20039;-79
2023/05/19 05:38:01;;;;;;;;;;;;;;;13.77;100.00;99872.88;5051315;28;20024;-79
2023/05/19 05:40:27;;;;;;;;;;;;;;;13.83;100.00;99877.56;5045958;28;20020;-78
2023/05/19 05:42:54;;;;;;;;;;;;;;;13.84;100.00;99873.09;5032048;28;20413;-77
2023/05/19 05:45:21;;;;;;;;;;;;;;;13.86;100.00;99873.75;5053978;28;19924;-81
2023/05/19 05:47:47;;;;;;;;;;;;;;;13.76;100.00;99870.38;5053626;28;20676;-82
2023/05/19 05:50:13;;;;;;;;;;;;;;;13.78;100.00;99869.22;5038339;28;19978;-81
2023/05/19 05:52:39;;;;;;;;;;;;;;;13.84;100.00;99867.78;5056211;28;19970;-79
2023/05/19 05:55:05;;;;;;;;;;;;;;;13.81;100.00;99868.06;5035830;28;19932;-80
2023/05/19 05:57:34;;;;;;;;;;;;;;;13.76;100.00;99880.97;5038939;28;20375;-81
2023/05/19 06:00:04;;;;;;;;;;;;;;;13.75;100.00;99874.00;5053617;28;20022;-78
2023/05/19 06:02:46;;;;;;;;;;;;;;;13.75;100.00;99871.34;5037224;28;19924;-78
2023/05/19 06:05:12;;;;;;;;;;;;;;;13.71;100.00;99870.00;5036955;28;19917;-76
2023/05/19 06:07:39;;;;;;;;;;;;;;;13.69;100.00;99875.47;5039626;28;20237;-79
2023/05/19 06:10:05;;;;;;;;;;;;;;;13.71;100.00;99870.00;5054948;28;19923;-77
2023/05/19 06:12:31;;;;;;;;;;;;;;;13.69;100.00;99879.94;5056057;28;19916;-83
2023/05/19 06:14:56;;;;;;;;;;;;;;;13.73;100.00;99878.63;5038755;28;19940;-81
2023/05/19 06:17:39;;;;;;;;;;;;;;;13.68;100.00;99867.66;5071040;28;19921;-79
2023/05/19 06:20:05;;;;;;;;;;;;;;;13.72;100.00;99869.03;5054209;28;19920;-78
2023/05/19 06:22:31;;;;;;;;;;;;;;;13.75;100.00;99874.00;5050137;28;20446;-78
2023/05/19 06:24:56;;;;;;;;;;;;;;;13.80;100.00;99863.75;5049047;28;20407;-77
2023/05/19 06:27:23;;;;;;;;;;;;;;;13.85;100.00;99870.25;5061558;28;19924;-79
2023/05/19 06:29:48;;;;;;;;;;;;;;;13.90;100.00;99869.81;5044829;28;19921;-79
2023/05/19 06:32:14;;;;;;;;;;;;;;;13.90;100.00;99872.47;5052940;28;19916;-80
2023/05/19 06:34:39;;;;;;;;;;;;;;;13.85;100.00;99869.44;5052104;28;19917;-80
2023/05/19 06:37:04;;;;;;;;;;;;;;;13.87;100.00;99872.75;5053925;28;19943;-79
2023/05/19 06:39:31;;;;;;;;;;;;;;;13.86;100.00;99871.94;5032021;28;20016;-79
2023/05/19 06:41:56;;;;;;;;;;;;;;;13.81;100.00;99873.38;5035882;28;20396;-78
2023/05/19 06:44:42;;;;;;;;;;;;;;;13.83;100.00;99874.91;5050653;28;19921;-79
2023/05/19 06:47:10;;;;;;;;;;;;;;;13.85;100.00;99874.72;5034837;28;19933;-79
2023/05/19 06:49:35;;;;;;;;;;;;;;;13.89;100.00;99876.09;5015664;28;19917;-79
2023/05/19 06:52:00;;;;;;;;;;;;;;;13.97;100.00;99872.66;5051276;28;19962;-78
2023/05/19 06:54:26;;;;;;;;;;;;;;;13.99;100.00;99876.81;5052286;28;19952;-77
2023/05/19 06:56:51;;;;;;;;;;;;;;;14.03;100.00;99878.16;5025413;28;20314;-79
2023/05/19 06:59:20;;;;;;;;;;;;;;;14.06;100.00;99877.88;5019450;28;19918;-79
2023/05/19 07:01:46;;;;;;;;;;;;;;;14.14;100.00;99875.25;5038849;28;19921;-79
2023/05/19 07:04:11;;;;;;;;;;;;;;;14.19;100.00;99875.63;5018120;28;20321;-78
2023/05/19 07:06:37;;;;;;;;;;;;;;;14.21;100.00;99884.25;5025163;28;19912;-78
2023/05/19 07:09:04;;;;;;;;;;;;;;;14.20;100.00;99874.59;5037036;28;19917;-79
2023/05/19 07:11:30;;;;;;;;;;;;;;;14.23;100.00;99874.31;5023344;28;19920;-80
2023/05/19 07:13:55;;;;;;;;;;;;;;;14.20;100.00;99877.25;5015346;28;19921;-78
2023/05/19 07:16:25;;;;;;;;;;;;;;;14.26;100.00;99867.84;5016687;28;20358;-76
2023/05/19 07:18:51;;;;;;;;;;;;;;;14.26;100.00;99873.97;5017359;28;19940;-86
2023/05/19 07:21:16;;;;;;;;;;;;;;;14.27;100.00;99886.25;5018065;28;19921;-81
2023/05/19 07:23:41;;;;;;;;;;;;;;;14.24;100.00;99875.97;5009805;28;19917;-83
2023/05/19 07:26:07;;;;;;;;;;;;;;;14.24;100.00;99875.97;5014317;28;20036;-82
2023/05/19 07:28:33;;;;;;;;;;;;;;;14.25;100.00;99876.81;5017064;28;20353;-82
2023/05/19 07:30:59;;;;;;;;;;;;;;;14.18;100.00;99881.09;5022665;28;19921;-78
2023/05/19 07:33:25;;;;;;;;;;;;;;;14.13;100.00;99884.22;5038608;28;19922;-84
2023/05/19 07:35:51;;;;;;;;;;;;;;;14.15;100.00;99876.91;5032118;28;20419;-79
2023/05/19 07:38:16;;;;;;;;;;;;;;;14.19;100.00;99870.31;5041655;28;19928;-78
2023/05/19 07:40:41;;;;;;;;;;;;;;;14.24;100.00;99873.31;5039178;28;19912;-77
2023/05/19 07:43:07;;;;;;;;;;;;;;;14.30;100.00;99875.34;5016357;28;19917;-80
2023/05/19 07:45:32;;;;;;;;;;;;;;;14.38;100.00;99876.38;5018049;28;20278;-80
2023/05/19 07:47:58;;;;;;;;;;;;;;;14.37;100.00;99874.72;5020087;28;19929;-79
2023/05/19 07:50:24;;;;;;;;;;;;;;;14.40;100.00;99874.41;5022945;28;19924;-79
2023/05/19 07:52:49;;;;;;;;;;;;;;;14.43;100.00;99879.41;5016508;28;19921;-78
2023/05/19 07:55:15;;;;;;;;;;;;;;;14.47;100.00;99878.09;5020614;28;19944;-78
2023/05/19 07:57:40;;;;;;;;;;;;;;;14.52;100.00;99889.06;5050551;28;19916;-76
2023/05/19 08:00:08;;;;;;;;;;;;;;;14.60;100.00;99881.13;5053267;28;19924;-77
2023/05/19 08:02:37;;;;;;;;;;;;;;;14.67;100.00;99877.66;5053775;28;20400;-77
2023/05/19 08:05:02;;;;;;;;;;;;;;;14.69;100.00;99881.00;5052184;28;19988;-76
2023/05/19 08:07:27;;;;;;;;;;;;;;;14.70;100.00;99881.84;5051951;28;20002;-77
2023/05/19 08:09:53;;;;;;;;;;;;;;;14.69;100.00;99885.47;5050335;28;19917;-77
2023/05/19 08:12:18;;;;;;;;;;;;;;;14.72;100.00;99885.16;5048542;28;19923;-78
2023/05/19 08:14:44;;;;;;;;;;;;;;;14.71;100.00;99883.50;5050289;28;19939;-78
2023/05/19 08:17:10;;;;;;;;;;;;;;;14.70;100.00;99884.50;5045225;28;20022;-76
2023/05/19 08:19:35;;;;;;;;;;;;;;;14.67;100.00;99884.78;5042120;28;20023;-76
2023/05/19 08:22:01;;;;;;;;;;;;;;;14.63;100.00;99891.44;5045260;28;19987;-76
2023/05/19 08:24:28;;;;;;;;;;;;;;;14.62;100.00;99889.75;5045780;28;19955;-77
2023/05/19 08:26:54;;;;;;;;;;;;;;;14.63;100.00;99891.44;5043760;28;20438;-76
2023/05/19 08:29:19;;;;;;;;;;;;;;;14.62;100.00;99889.75;5043845;28;19916;-75
2023/05/19 08:31:45;;;;;;;;;;;;;;;14.62;100.00;99892.41;5043082;28;19916;-75
2023/05/19 08:34:10;;;;;;;;;;;;;;;14.59;100.00;99898.06;5040998;28;19921;-76
2023/05/19 08:36:36;;;;;;;;;;;;;;;14.57;100.00;99886.75;5045575;28;19920;-76
2023/05/19 08:39:01;;;;;;;;;;;;;;;14.62;100.00;99884.44;5041742;28;19923;-75
2023/05/19 08:41:27;;;;;;;;;;;;;;;14.69;100.00;99890.78;5044493;28;19920;-75
2023/05/19 08:43:53;;;;;;;;;;;;;;;14.72;100.00;99890.47;5042741;28;20406;-77
2023/05/19 08:46:20;;;;;;;;;;;;;;;14.72;100.00;99890.47;5027403;28;19970;-77
2023/05/19 08:48:47;;;;;;;;;;;;;;;14.66;100.00;99888.47;5040469;28;19917;-77
2023/05/19 08:51:21;;;;;;;;;;;;;;;14.67;100.00;99890.09;5045401;28;19928;-76
2023/05/19 08:53:49;;;;;;;;;;;;;;;14.62;100.00;99895.06;5042418;28;19966;-76
2023/05/19 08:56:16;;;;;;;;;;;;;;;14.58;100.00;99893.75;5043901;28;19921;-78
2023/05/19 08:58:43;;;;;;;;;;;;;;;14.57;100.00;99897.38;5041049;28;19944;-78
2023/05/19 09:01:12;;;;;;;;;;;;;;;14.59;100.00;99895.41;5030536;28;19955;-76
2023/05/19 09:03:37;;;;;;;;;;;;;;;14.54;100.00;99897.72;5038031;28;20431;-76
2023/05/19 09:06:04;;;;;;;;;;;;;;;14.59;100.00;99895.41;5027392;28;19917;-75
2023/05/19 09:08:29;;;;;;;;;;;;;;;14.59;100.00;99895.41;5040959;28;19916;-76
2023/05/19 09:10:55;;;;;;;;;;;;;;;14.60;100.00;99899.72;5043528;28;19966;-74
2023/05/19 09:13:20;;;;;;;;;;;;;;;14.65;100.00;99894.78;5043307;28;19940;-75
2023/05/19 09:15:46;;;;;;;;;;;;;;;14.65;100.00;99900.09;5042222;28;20027;-76
2023/05/19 09:18:12;;;;;;;;;;;;;;;14.63;100.00;99902.06;5040685;28;19964;-76
2023/05/19 09:20:38;;;;;;;;;;;;;;;14.64;100.00;99906.38;5042543;28;19917;-77
2023/05/19 09:23:04;;;;;;;;;;;;;;;14.67;100.00;99903.38;5037702;28;20286;-76
2023/05/19 09:25:30;;;;;;;;;;;;;;;14.60;100.00;99913.00;5044584;28;19935;-76
2023/05/19 09:27:56;;;;;;;;;;;;;;;14.57;100.00;99913.31;5042501;28;20283;-77
2023/05/19 09:30:22;;;;;;;;;;;;;;;14.52;100.00;99910.31;5043553;28;20003;-77
2023/05/19 09:32:47;;;;;;;;;;;;;;;14.55;100.00;99907.34;5043384;28;20015;-77
2023/05/19 09:35:16;;;;;;;;;;;;;;;14.60;100.00;99907.69;5042296;28;19999;-77
2023/05/19 09:37:42;;;;;;;;;;;;;;;14.56;100.00;99895.72;5040791;28;20373;-79
2023/05/19 09:40:08;;;;;;;;;;;;;;;14.53;100.00;99906.66;5045807;28;19946;-78
2023/05/19 09:42:36;;;;;;;;;;;;;;;14.56;100.00;99901.84;5049090;28;19978;-79
2023/05/19 09:45:02;;;;;;;;;;;;;;;14.54;100.00;99897.72;5042985;28;20339;-77
2023/05/19 09:47:32;;;;;;;;;;;;;;;14.58;100.00;99899.06;5034934;28;20458;-79
2023/05/19 09:49:57;;;;;;;;;;;;;;;14.59;100.00;99895.41;5046537;28;19935;-83
2023/05/19 09:52:22;;;;;;;;;;;;;;;14.59;100.00;99892.75;5051745;28;19920;-81
2023/05/19 09:54:50;;;;;;;;;;;;;;;14.61;100.00;99899.56;5050068;28;19973;-79
2023/05/19 09:57:15;;;;;;;;;;;;;;;14.66;100.00;99897.28;5052430;28;19927;-81
2023/05/19 09:59:42;;;;;;;;;;;;;;;14.70;100.00;99893.28;5049679;28;20361;-81
2023/05/19 10:02:13;;;;;;;;;;;;;;;14.63;100.00;99902.88;5053416;28;19917;-77
2023/05/19 10:04:40;;;;;;;;;;;;;;;14.64;100.00;99904.56;5046176;28;19916;-78
2023/05/19 10:07:06;;;;;;;;;;;;;;;14.72;100.00;99895.78;5053347;28;20411;-79
2023/05/19 10:09:32;;;;;;;;;;;;;;;14.72;100.00;99906.41;5055015;28;19916;-79
2023/05/19 10:11:57;;;;;;;;;;;;;;;14.79;100.00;99907.41;5054494;28;19917;-80
2023/05/19 10:14:23;;;;;;;;;;;;;;;14.80;100.00;99901.13;5051687;28;20016;-79
2023/05/19 10:16:52;;;;;;;;;;;;;;;14.85;100.00;99896.16;5046414;28;20277;-83
2023/05/19 10:19:19;;;;;;;;;;;;;;;14.80;100.00;99901.13;5044617;28;19921;-81
2023/05/19 10:21:45;;;;;;;;;;;;;;;14.90;100.00;99899.19;5044125;28;19991;-80
2023/05/19 10:24:10;;;;;;;;;;;;;;;15.01;100.00;99901.53;5047805;28;20452;-81
2023/05/19 10:26:36;;;;;;;;;;;;;;;15.03;100.00;99893.38;5044739;28;19919;-79
2023/05/19 10:29:03;;;;;;;;;;;;;;;15.08;100.00;99891.88;5048590;28;19943;-79
2023/05/19 10:31:30;;;;;;;;;;;;;;;15.05;100.00;99892.22;5048227;28;19916;-79
2023/05/19 10:34:04;;;;;;;;;;;;;;;15.07;100.00;99892.91;5045425;28;19919;-79
2023/05/19 10:36:41;;;;;;;;;;;;;;;15.02;100.00;99892.53;5047667;28;20007;-78
2023/05/19 10:39:12;;;;;;;;;;;;;;;15.12;100.00;99887.91;5048583;28;19916;-78
2023/05/19 10:42:13;;;;;;;;;;;;;;;15.12;100.00;99887.09;5045659;28;19916;-78
2023/05/19 10:44:44;;;;;;;;;;;;;;;15.20;100.00;99888.94;4989284;28;19917;-80
2023/05/19 10:47:10;;;;;;;;;;;;;;;15.21;100.00;99879.94;4989404;28;19918;-79
2023/05/19 10:49:36;;;;;;;;;;;;;;;15.11;100.00;99885.41;4974513;28;20394;-79
2023/05/19 10:52:01;;;;;;;;;;;;;;;15.05;100.00;99886.91;4990560;28;19918;-80
2023/05/19 10:54:39;;;;;;;;;;;;;;;15.05;100.00;99880.75;4990800;28;19917;-79
2023/05/19 10:57:05;;;;;;;;;;;;;;;15.01;100.00;99890.06;4974188;28;19918;-77
2023/05/19 10:59:33;;;;;;;;;;;;;;;14.94;100.00;99884.56;4990772;28;20445;-80
2023/05/19 11:02:05;;;;;;;;;;;;;;;14.96;100.00;99881.75;4990735;28;19917;-79
2023/05/19 11:04:46;;;;;;;;;;;;;;;14.92;100.00;99873.25;4989344;28;20000;-80
2023/05/19 11:07:23;;;;;;;;;;;;;;;14.95;100.00;99880.91;4990215;28;20382;-80
2023/05/19 11:09:51;;;;;;;;;;;;;;;15.05;100.00;99876.28;4969486;28;20384;-80
2023/05/19 11:12:21;;;;;;;;;;;;;;;15.16;100.00;99873.31;4990130;28;20294;-79
2023/05/19 11:14:47;;;;;;;;;;;;;;;15.29;100.00;99878.13;4973671;28;19921;-79
2023/05/19 11:17:13;;;;;;;;;;;;;;;15.39;100.00;99876.13;4973469;28;20013;-81
2023/05/19 11:19:40;;;;;;;;;;;;;;;15.32;100.00;99882.28;5047170;28;19959;-80
2023/05/19 11:22:06;;;;;;;;;;;;;;;15.25;100.00;99870.66;5049471;28;20132;-81
2023/05/19 11:24:35;;;;;;;;;;;;;;;15.21;100.00;99866.66;5052030;28;19917;-80
2023/05/19 11:27:21;;;;;;;;;;;;;;;15.19;100.00;99871.31;5035080;28;20373;-81
2023/05/19 11:29:47;;;;;;;;;;;;;;;15.08;100.00;99864.47;5040046;28;19921;-80
2023/05/19 11:32:12;;;;;;;;;;;;;;;15.09;100.00;99866.13;5067240;28;19913;-80
2023/05/19 11:34:38;;;;;;;;;;;;;;;15.14;100.00;99864.66;5068234;28;19927;-80
2023/05/19 11:37:04;;;;;;;;;;;;;;;15.04;100.00;99869.28;5068008;28;19939;-79
2023/05/19 11:39:31;;;;;;;;;;;;;;;14.97;100.00;99862.97;5053080;28;19916;-80
2023/05/19 11:41:56;;;;;;;;;;;;;;;14.93;100.00;99866.94;5044825;28;20262;-80
2023/05/19 11:44:21;;;;;;;;;;;;;;;14.77;100.00;99852.81;5057883;28;19924;-80
2023/05/19 11:46:47;;;;;;;;;;;;;;;14.75;100.00;99863.56;5055952;28;19916;-80
2023/05/19 11:49:13;;;;;;;;;;;;;;;14.62;100.00;99858.72;5035040;28;19988;-80
2023/05/19 11:51:41;;;;;;;;;;;;;;;14.57;100.00;99860.19;5053429;28;19959;-80
2023/05/19 11:54:07;;;;;;;;;;;;;;;14.55;100.00;99856.91;5026060;28;20377;-80
2023/05/19 11:56:33;;;;;;;;;;;;;;;14.48;100.00;99855.88;5051399;28;19966;-80
2023/05/19 11:58:58;;;;;;;;;;;;;;;14.50;100.00;99853.88;5049660;28;20354;-81
2023/05/19 12:01:25;;;;;;;;;;;;;;;14.51;100.00;99861.69;5051739;28;19955;-80
2023/05/19 12:03:51;;;;;;;;;;;;;;;14.64;100.00;99850.59;5051235;28;19917;-81
2023/05/19 12:06:16;;;;;;;;;;;;;;;14.65;100.00;99846.97;5051453;28;20385;-80
2023/05/19 12:08:41;;;;;;;;;;;;;;;14.64;100.00;99839.97;5051537;28;19923;-80
2023/05/19 12:11:07;;;;;;;;;;;;;;;14.57;100.00;99852.22;5050538;28;19916;-79
2023/05/19 12:13:33;;;;;;;;;;;;;;;14.51;100.00;99847.56;5051243;28;19916;-80
2023/05/19 12:16:00;;;;;;;;;;;;;;;14.51;100.00;99850.22;5049509;28;19951;-80
2023/05/19 12:18:27;;;;;;;;;;;;;;;14.51;100.00;99847.56;5044392;28;20370;-79
2023/05/19 12:20:53;;;;;;;;;;;;;;;14.48;100.00;99846.06;5049410;28;19917;-79
2023/05/19 12:23:18;;;;;;;;;;;;;;;14.38;100.00;99849.84;5030854;28;20252;-80
2023/05/19 12:25:44;;;;;;;;;;;;;;;14.38;100.00;99849.84;5050242;28;19924;-80
2023/05/19 12:28:09;;;;;;;;;;;;;;;14.41;100.00;99846.88;5050924;28;19917;-79
2023/05/19 12:30:34;;;;;;;;;;;;;;;14.40;100.00;99847.84;5046424;28;19990;-80
2023/05/19 12:33:00;;;;;;;;;;;;;;;14.41;100.00;99849.53;5033326;28;19920;-79
2023/05/19 12:35:26;;;;;;;;;;;;;;;14.45;100.00;99848.19;5051986;28;19921;-77
2023/05/19 12:37:53;;;;;;;;;;;;;;;14.44;100.00;99847.38;5041479;28;19967;-82
2023/05/19 12:40:18;;;;;;;;;;;;;;;14.34;100.00;99850.13;5043991;28;19987;-81
2023/05/19 12:42:44;;;;;;;;;;;;;;;14.28;100.00;99845.47;5032426;28;20342;-81